sensor_id;sensor_type;location;lat;lon;timestamp;P1;durP1;ratioP1;P2;durP2;ratioP2
65717;SDS011;52445;52.466;-1.016;2023-04-05T00:02:08;13.13;;;5.40;;
65717;SDS011;52445;52.466;-1.016;2023-04-05T00:04:36;12.95;;;4.47;;
65717;SDS011;52445;52.466;-1.016;2023-04-05T00:07:04;14.50;;;7.25;;
65717;SDS011;52445;52.466;-1.016;2023-04-05T00:09:33;14.52;;;6.78;;
65717;SDS011;52445;52.466;-1.016;2023-04-05T00:12:00;15.15;;;5.60;;
65717;SDS011;52445;52.466;-1.016;2023-04-05T00:14:26;13.43;;;4.80;;
65717;SDS011;52445;52.466;-1.016;2023-04-05T00:16:53;12.85;;;5.05;;
65717;SDS011;52445;52.466;-1.016;2023-04-05T00:19:20;13.15;;;7.80;;
65717;SDS011;52445;52.466;-1.016;2023-04-05T00:21:48;15.23;;;7.30;;
65717;SDS011;52445;52.466;-1.016;2023-04-05T00:24:17;14.40;;;6.85;;
65717;SDS011;52445;52.466;-1.016;2023-04-05T00:26:45;15.23;;;7.13;;
65717;SDS011;52445;52.466;-1.016;2023-04-05T00:29:14;13.35;;;7.20;;
65717;SDS011;52445;52.466;-1.016;2023-04-05T00:31:42;11.82;;;6.78;;
65717;SDS011;52445;52.466;-1.016;2023-04-05T00:34:10;16.45;;;7.00;;
65717;SDS011;52445;52.466;-1.016;2023-04-05T00:36:39;14.85;;;6.82;;
65717;SDS011;52445;52.466;-1.016;2023-04-05T00:39:06;19.73;;;6.78;;
65717;SDS011;52445;52.466;-1.016;2023-04-05T00:41:35;12.70;;;6.28;;
65717;SDS011;52445;52.466;-1.016;2023-04-05T00:44:03;15.63;;;8.18;;
65717;SDS011;52445;52.466;-1.016;2023-04-05T00:46:33;12.75;;;5.22;;
65717;SDS011;52445;52.466;-1.016;2023-04-05T00:49:03;12.73;;;7.15;;
65717;SDS011;52445;52.466;-1.016;2023-04-05T00:51:32;15.10;;;7.47;;
65717;SDS011;52445;52.466;-1.016;2023-04-05T00:54:01;13.32;;;7.78;;
65717;SDS011;52445;52.466;-1.016;2023-04-05T00:56:29;15.93;;;7.88;;
65717;SDS011;52445;52.466;-1.016;2023-04-05T00:58:56;14.85;;;8.43;;
65717;SDS011;52445;52.466;-1.016;2023-04-05T01:01:23;14.55;;;7.60;;
65717;SDS011;52445;52.466;-1.016;2023-04-05T01:03:52;13.93;;;8.05;;
65717;SDS011;52445;52.466;-1.016;2023-04-05T01:12:02;15.52;;;6.32;;
65717;SDS011;52445;52.466;-1.016;2023-04-05T01:14:32;18.45;;;6.43;;
65717;SDS011;52445;52.466;-1.016;2023-04-05T01:17:09;14.23;;;6.00;;
65717;SDS011;52445;52.466;-1.016;2023-04-05T01:19:36;11.38;;;5.43;;
65717;SDS011;52445;52.466;-1.016;2023-04-05T01:37:01;15.95;;;7.53;;
65717;SDS011;52445;52.466;-1.016;2023-04-05T01:39:21;14.77;;;6.18;;
65717;SDS011;52445;52.466;-1.016;2023-04-05T01:41:49;14.38;;;5.90;;
65717;SDS011;52445;52.466;-1.016;2023-04-05T01:44:16;13.73;;;6.00;;
65717;SDS011;52445;52.466;-1.016;2023-04-05T01:46:43;20.15;;;6.53;;
65717;SDS011;52445;52.466;-1.016;2023-04-05T01:49:09;17.15;;;6.20;;
65717;SDS011;52445;52.466;-1.016;2023-04-05T01:51:36;14.00;;;6.75;;
65717;SDS011;52445;52.466;-1.016;2023-04-05T01:54:07;15.07;;;6.30;;
65717;SDS011;52445;52.466;-1.016;2023-04-05T01:56:34;15.32;;;6.28;;
65717;SDS011;52445;52.466;-1.016;2023-04-05T01:59:01;16.75;;;6.57;;
65717;SDS011;52445;52.466;-1.016;2023-04-05T02:01:27;16.27;;;7.53;;
65717;SDS011;52445;52.466;-1.016;2023-04-05T02:03:54;16.02;;;6.25;;
65717;SDS011;52445;52.466;-1.016;2023-04-05T02:06:21;15.75;;;6.93;;
65717;SDS011;52445;52.466;-1.016;2023-04-05T02:08:48;12.50;;;5.88;;
65717;SDS011;52445;52.466;-1.016;2023-04-05T02:11:15;17.33;;;6.97;;
65717;SDS011;52445;52.466;-1.016;2023-04-05T02:13:41;16.67;;;6.78;;
65717;SDS011;52445;52.466;-1.016;2023-04-05T02:16:08;15.77;;;6.80;;
65717;SDS011;52445;52.466;-1.016;2023-04-05T02:18:35;13.60;;;5.97;;
65717;SDS011;52445;52.466;-1.016;2023-04-05T02:21:04;13.32;;;6.10;;
65717;SDS011;52445;52.466;-1.016;2023-04-05T02:23:32;14.10;;;6.40;;
65717;SDS011;52445;52.466;-1.016;2023-04-05T02:25:59;13.93;;;6.53;;
65717;SDS011;52445;52.466;-1.016;2023-04-05T02:28:26;19.38;;;6.05;;
65717;SDS011;52445;52.466;-1.016;2023-04-05T02:30:52;16.00;;;6.43;;
65717;SDS011;52445;52.466;-1.016;2023-04-05T02:33:19;14.52;;;6.65;;
65717;SDS011;52445;52.466;-1.016;2023-04-05T02:35:48;15.32;;;6.75;;
65717;SDS011;52445;52.466;-1.016;2023-04-05T02:38:17;15.50;;;6.63;;
65717;SDS011;52445;52.466;-1.016;2023-04-05T02:40:45;15.05;;;7.00;;
65717;SDS011;52445;52.466;-1.016;2023-04-05T02:43:13;18.42;;;7.30;;
65717;SDS011;52445;52.466;-1.016;2023-04-05T02:45:40;17.70;;;6.40;;
65717;SDS011;52445;52.466;-1.016;2023-04-05T02:48:07;12.60;;;5.97;;
65717;SDS011;52445;52.466;-1.016;2023-04-05T02:50:33;15.68;;;7.03;;
65717;SDS011;52445;52.466;-1.016;2023-04-05T02:53:00;16.63;;;6.95;;
65717;SDS011;52445;52.466;-1.016;2023-04-05T02:55:26;15.73;;;6.75;;
65717;SDS011;52445;52.466;-1.016;2023-04-05T02:57:57;15.63;;;6.47;;
65717;SDS011;52445;52.466;-1.016;2023-04-05T03:00:25;15.68;;;6.55;;
65717;SDS011;52445;52.466;-1.016;2023-04-05T03:02:53;19.10;;;7.13;;
65717;SDS011;52445;52.466;-1.016;2023-04-05T03:05:21;14.95;;;6.75;;
65717;SDS011;52445;52.466;-1.016;2023-04-05T03:07:48;16.23;;;6.53;;
65717;SDS011;52445;52.466;-1.016;2023-04-05T03:10:17;15.25;;;7.50;;
65717;SDS011;52445;52.466;-1.016;2023-04-05T03:12:47;16.15;;;6.78;;
65717;SDS011;52445;52.466;-1.016;2023-04-05T03:15:16;15.30;;;6.45;;
65717;SDS011;52445;52.466;-1.016;2023-04-05T03:17:43;14.57;;;6.55;;
65717;SDS011;52445;52.466;-1.016;2023-04-05T03:20:10;14.82;;;6.15;;
65717;SDS011;52445;52.466;-1.016;2023-04-05T03:22:37;17.85;;;6.78;;
65717;SDS011;52445;52.466;-1.016;2023-04-05T03:25:04;17.40;;;5.75;;
65717;SDS011;52445;52.466;-1.016;2023-04-05T03:27:31;20.73;;;6.95;;
65717;SDS011;52445;52.466;-1.016;2023-04-05T03:29:57;20.55;;;7.32;;
65717;SDS011;52445;52.466;-1.016;2023-04-05T03:32:24;14.20;;;7.28;;
65717;SDS011;52445;52.466;-1.016;2023-04-05T03:34:51;17.88;;;7.60;;
65717;SDS011;52445;52.466;-1.016;2023-04-05T03:37:17;13.77;;;5.50;;
65717;SDS011;52445;52.466;-1.016;2023-04-05T03:39:44;13.32;;;5.57;;
65717;SDS011;52445;52.466;-1.016;2023-04-05T03:42:11;19.13;;;6.88;;
65717;SDS011;52445;52.466;-1.016;2023-04-05T03:44:37;14.18;;;7.03;;
65717;SDS011;52445;52.466;-1.016;2023-04-05T03:47:04;14.45;;;6.30;;
65717;SDS011;52445;52.466;-1.016;2023-04-05T03:49:31;20.42;;;6.82;;
65717;SDS011;52445;52.466;-1.016;2023-04-05T03:51:57;13.35;;;5.50;;
65717;SDS011;52445;52.466;-1.016;2023-04-05T03:54:24;15.68;;;6.97;;
65717;SDS011;52445;52.466;-1.016;2023-04-05T03:56:50;18.55;;;7.22;;
65717;SDS011;52445;52.466;-1.016;2023-04-05T03:59:17;16.73;;;7.57;;
65717;SDS011;52445;52.466;-1.016;2023-04-05T04:01:44;16.65;;;7.53;;
65717;SDS011;52445;52.466;-1.016;2023-04-05T04:04:10;15.35;;;6.60;;
65717;SDS011;52445;52.466;-1.016;2023-04-05T04:06:38;16.58;;;6.32;;
65717;SDS011;52445;52.466;-1.016;2023-04-05T04:09:05;12.98;;;5.78;;
65717;SDS011;52445;52.466;-1.016;2023-04-05T04:11:32;16.45;;;6.20;;
65717;SDS011;52445;52.466;-1.016;2023-04-05T04:13:58;12.95;;;6.10;;
65717;SDS011;52445;52.466;-1.016;2023-04-05T04:16:25;14.25;;;5.60;;
65717;SDS011;52445;52.466;-1.016;2023-04-05T04:18:54;12.63;;;5.30;;
65717;SDS011;52445;52.466;-1.016;2023-04-05T04:21:21;17.02;;;6.65;;
65717;SDS011;52445;52.466;-1.016;2023-04-05T04:23:50;14.82;;;6.57;;
65717;SDS011;52445;52.466;-1.016;2023-04-05T04:26:17;16.30;;;6.22;;
65717;SDS011;52445;52.466;-1.016;2023-04-05T04:28:52;12.20;;;5.97;;
65717;SDS011;52445;52.466;-1.016;2023-04-05T04:31:18;18.58;;;5.97;;
65717;SDS011;52445;52.466;-1.016;2023-04-05T04:33:50;14.18;;;5.43;;
65717;SDS011;52445;52.466;-1.016;2023-04-05T04:36:16;15.85;;;6.72;;
65717;SDS011;52445;52.466;-1.016;2023-04-05T04:38:52;16.35;;;6.55;;
65717;SDS011;52445;52.466;-1.016;2023-04-05T04:41:18;17.17;;;5.85;;
65717;SDS011;52445;52.466;-1.016;2023-04-05T04:43:48;20.48;;;6.43;;
65717;SDS011;52445;52.466;-1.016;2023-04-05T04:46:14;13.48;;;6.13;;
65717;SDS011;52445;52.466;-1.016;2023-04-05T04:48:41;17.17;;;5.85;;
65717;SDS011;52445;52.466;-1.016;2023-04-05T04:51:07;15.30;;;6.60;;
65717;SDS011;52445;52.466;-1.016;2023-04-05T04:53:34;16.52;;;6.28;;
65717;SDS011;52445;52.466;-1.016;2023-04-05T04:56:04;14.25;;;5.95;;
65717;SDS011;52445;52.466;-1.016;2023-04-05T04:58:31;16.88;;;6.57;;
65717;SDS011;52445;52.466;-1.016;2023-04-05T05:00:58;14.88;;;6.28;;
65717;SDS011;52445;52.466;-1.016;2023-04-05T05:03:25;13.63;;;5.97;;
65717;SDS011;52445;52.466;-1.016;2023-04-05T05:05:51;15.07;;;5.63;;
65717;SDS011;52445;52.466;-1.016;2023-04-05T05:08:19;14.95;;;6.40;;
65717;SDS011;52445;52.466;-1.016;2023-04-05T05:10:49;12.10;;;4.78;;
65717;SDS011;52445;52.466;-1.016;2023-04-05T05:13:18;14.77;;;5.32;;
65717;SDS011;52445;52.466;-1.016;2023-04-05T05:15:44;16.40;;;6.45;;
65717;SDS011;52445;52.466;-1.016;2023-04-05T05:18:11;20.15;;;6.72;;
65717;SDS011;52445;52.466;-1.016;2023-04-05T05:20:38;16.83;;;5.45;;
65717;SDS011;52445;52.466;-1.016;2023-04-05T05:23:06;12.32;;;5.28;;
65717;SDS011;52445;52.466;-1.016;2023-04-05T05:25:33;15.80;;;5.53;;
65717;SDS011;52445;52.466;-1.016;2023-04-05T05:28:00;12.27;;;5.47;;
65717;SDS011;52445;52.466;-1.016;2023-04-05T05:30:26;18.33;;;5.78;;
65717;SDS011;52445;52.466;-1.016;2023-04-05T05:32:53;13.27;;;6.03;;
65717;SDS011;52445;52.466;-1.016;2023-04-05T05:35:20;14.05;;;6.30;;
65717;SDS011;52445;52.466;-1.016;2023-04-05T05:37:46;13.32;;;5.60;;
65717;SDS011;52445;52.466;-1.016;2023-04-05T05:40:13;15.57;;;5.22;;
65717;SDS011;52445;52.466;-1.016;2023-04-05T05:42:41;14.52;;;5.47;;
65717;SDS011;52445;52.466;-1.016;2023-04-05T05:45:08;16.83;;;5.15;;
65717;SDS011;52445;52.466;-1.016;2023-04-05T05:47:35;12.52;;;5.28;;
65717;SDS011;52445;52.466;-1.016;2023-04-05T05:50:02;10.38;;;4.93;;
65717;SDS011;52445;52.466;-1.016;2023-04-05T05:52:30;14.07;;;5.63;;
65717;SDS011;52445;52.466;-1.016;2023-04-05T05:54:56;12.57;;;4.85;;
65717;SDS011;52445;52.466;-1.016;2023-04-05T05:57:23;16.20;;;6.32;;
65717;SDS011;52445;52.466;-1.016;2023-04-05T05:59:50;16.20;;;5.55;;
65717;SDS011;52445;52.466;-1.016;2023-04-05T06:02:16;14.93;;;5.53;;
65717;SDS011;52445;52.466;-1.016;2023-04-05T06:04:43;12.85;;;4.43;;
65717;SDS011;52445;52.466;-1.016;2023-04-05T06:07:10;13.40;;;5.13;;
65717;SDS011;52445;52.466;-1.016;2023-04-05T06:09:37;12.38;;;4.78;;
65717;SDS011;52445;52.466;-1.016;2023-04-05T06:12:04;12.98;;;5.50;;
65717;SDS011;52445;52.466;-1.016;2023-04-05T06:14:30;13.20;;;5.93;;
65717;SDS011;52445;52.466;-1.016;2023-04-05T06:16:57;14.52;;;5.10;;
65717;SDS011;52445;52.466;-1.016;2023-04-05T06:19:24;15.13;;;5.25;;
65717;SDS011;52445;52.466;-1.016;2023-04-05T06:21:51;14.27;;;5.75;;
65717;SDS011;52445;52.466;-1.016;2023-04-05T06:24:17;11.77;;;4.80;;
65717;SDS011;52445;52.466;-1.016;2023-04-05T06:26:44;9.23;;;4.20;;
65717;SDS011;52445;52.466;-1.016;2023-04-05T06:29:10;12.60;;;4.78;;
65717;SDS011;52445;52.466;-1.016;2023-04-05T06:31:37;13.00;;;5.40;;
65717;SDS011;52445;52.466;-1.016;2023-04-05T06:34:04;13.27;;;5.38;;
65717;SDS011;52445;52.466;-1.016;2023-04-05T06:36:31;11.15;;;4.60;;
65717;SDS011;52445;52.466;-1.016;2023-04-05T06:38:59;17.42;;;6.25;;
65717;SDS011;52445;52.466;-1.016;2023-04-05T06:41:26;17.42;;;5.63;;
65717;SDS011;52445;52.466;-1.016;2023-04-05T06:43:53;15.23;;;5.20;;
65717;SDS011;52445;52.466;-1.016;2023-04-05T06:46:20;12.73;;;5.47;;
65717;SDS011;52445;52.466;-1.016;2023-04-05T06:48:47;12.48;;;5.32;;
65717;SDS011;52445;52.466;-1.016;2023-04-05T06:51:15;17.60;;;6.88;;
65717;SDS011;52445;52.466;-1.016;2023-04-05T06:53:42;12.88;;;5.45;;
65717;SDS011;52445;52.466;-1.016;2023-04-05T06:56:09;11.55;;;4.90;;
65717;SDS011;52445;52.466;-1.016;2023-04-05T06:58:36;10.85;;;4.95;;
65717;SDS011;52445;52.466;-1.016;2023-04-05T07:01:02;15.23;;;6.07;;
65717;SDS011;52445;52.466;-1.016;2023-04-05T07:03:30;14.40;;;6.65;;
65717;SDS011;52445;52.466;-1.016;2023-04-05T07:05:58;13.00;;;5.50;;
65717;SDS011;52445;52.466;-1.016;2023-04-05T07:08:26;14.30;;;5.78;;
65717;SDS011;52445;52.466;-1.016;2023-04-05T07:10:54;16.77;;;6.32;;
65717;SDS011;52445;52.466;-1.016;2023-04-05T07:13:21;14.90;;;6.68;;
65717;SDS011;52445;52.466;-1.016;2023-04-05T07:15:48;15.15;;;6.57;;
65717;SDS011;52445;52.466;-1.016;2023-04-05T07:18:16;14.05;;;6.50;;
65717;SDS011;52445;52.466;-1.016;2023-04-05T07:20:45;15.10;;;5.88;;
65717;SDS011;52445;52.466;-1.016;2023-04-05T07:23:13;19.42;;;6.65;;
65717;SDS011;52445;52.466;-1.016;2023-04-05T07:25:39;14.32;;;5.47;;
65717;SDS011;52445;52.466;-1.016;2023-04-05T07:28:06;13.38;;;5.43;;
65717;SDS011;52445;52.466;-1.016;2023-04-05T07:30:33;11.02;;;5.03;;
65717;SDS011;52445;52.466;-1.016;2023-04-05T07:33:02;15.93;;;6.68;;
65717;SDS011;52445;52.466;-1.016;2023-04-05T07:35:28;13.20;;;6.35;;
65717;SDS011;52445;52.466;-1.016;2023-04-05T07:37:55;12.13;;;5.13;;
65717;SDS011;52445;52.466;-1.016;2023-04-05T07:40:22;15.10;;;5.90;;
65717;SDS011;52445;52.466;-1.016;2023-04-05T07:42:48;19.05;;;7.00;;
65717;SDS011;52445;52.466;-1.016;2023-04-05T07:45:15;15.40;;;6.00;;
65717;SDS011;52445;52.466;-1.016;2023-04-05T07:47:42;17.85;;;6.78;;
65717;SDS011;52445;52.466;-1.016;2023-04-05T07:50:08;18.08;;;7.15;;
65717;SDS011;52445;52.466;-1.016;2023-04-05T07:52:37;16.52;;;6.72;;
65717;SDS011;52445;52.466;-1.016;2023-04-05T07:55:03;17.25;;;6.40;;
65717;SDS011;52445;52.466;-1.016;2023-04-05T07:57:30;18.92;;;6.55;;
65717;SDS011;52445;52.466;-1.016;2023-04-05T07:59:57;15.65;;;6.88;;
65717;SDS011;52445;52.466;-1.016;2023-04-05T08:02:23;16.48;;;6.30;;
65717;SDS011;52445;52.466;-1.016;2023-04-05T08:04:50;13.85;;;5.78;;
65717;SDS011;52445;52.466;-1.016;2023-04-05T08:07:17;15.07;;;7.20;;
65717;SDS011;52445;52.466;-1.016;2023-04-05T08:09:44;14.80;;;6.07;;
65717;SDS011;52445;52.466;-1.016;2023-04-05T08:12:11;16.02;;;5.95;;
65717;SDS011;52445;52.466;-1.016;2023-04-05T08:14:38;16.75;;;7.18;;
65717;SDS011;52445;52.466;-1.016;2023-04-05T08:17:04;20.70;;;7.88;;
65717;SDS011;52445;52.466;-1.016;2023-04-05T08:19:31;18.38;;;7.40;;
65717;SDS011;52445;52.466;-1.016;2023-04-05T08:21:58;14.82;;;6.15;;
65717;SDS011;52445;52.466;-1.016;2023-04-05T08:24:24;15.30;;;6.22;;
65717;SDS011;52445;52.466;-1.016;2023-04-05T08:26:51;14.18;;;6.85;;
65717;SDS011;52445;52.466;-1.016;2023-04-05T08:29:17;15.20;;;5.80;;
65717;SDS011;52445;52.466;-1.016;2023-04-05T08:31:44;11.23;;;4.88;;
65717;SDS011;52445;52.466;-1.016;2023-04-05T08:34:11;14.10;;;6.97;;
65717;SDS011;52445;52.466;-1.016;2023-04-05T08:36:38;17.27;;;7.40;;
65717;SDS011;52445;52.466;-1.016;2023-04-05T08:39:04;18.30;;;8.05;;
65717;SDS011;52445;52.466;-1.016;2023-04-05T08:41:34;16.50;;;6.85;;
65717;SDS011;52445;52.466;-1.016;2023-04-05T08:44:07;14.80;;;6.88;;
65717;SDS011;52445;52.466;-1.016;2023-04-05T08:46:35;16.60;;;7.05;;
65717;SDS011;52445;52.466;-1.016;2023-04-05T08:49:04;17.85;;;7.18;;
65717;SDS011;52445;52.466;-1.016;2023-04-05T08:51:35;16.67;;;6.85;;
65717;SDS011;52445;52.466;-1.016;2023-04-05T08:54:04;16.70;;;6.88;;
65717;SDS011;52445;52.466;-1.016;2023-04-05T08:56:31;16.52;;;6.28;;
65717;SDS011;52445;52.466;-1.016;2023-04-05T08:59:01;14.85;;;6.80;;
65717;SDS011;52445;52.466;-1.016;2023-04-05T09:01:30;17.63;;;7.63;;
65717;SDS011;52445;52.466;-1.016;2023-04-05T09:04:00;15.77;;;7.88;;
65717;SDS011;52445;52.466;-1.016;2023-04-05T09:06:31;15.23;;;7.13;;
65717;SDS011;52445;52.466;-1.016;2023-04-05T09:08:57;15.70;;;7.78;;
65717;SDS011;52445;52.466;-1.016;2023-04-05T09:11:24;14.05;;;6.80;;
65717;SDS011;52445;52.466;-1.016;2023-04-05T09:13:51;18.90;;;8.00;;
65717;SDS011;52445;52.466;-1.016;2023-04-05T09:16:18;15.75;;;6.90;;
65717;SDS011;52445;52.466;-1.016;2023-04-05T09:18:45;17.40;;;6.43;;
65717;SDS011;52445;52.466;-1.016;2023-04-05T09:21:12;12.43;;;5.35;;
65717;SDS011;52445;52.466;-1.016;2023-04-05T09:23:40;15.75;;;7.25;;
65717;SDS011;52445;52.466;-1.016;2023-04-05T09:26:19;15.70;;;7.55;;
65717;SDS011;52445;52.466;-1.016;2023-04-05T09:28:47;15.73;;;7.43;;
65717;SDS011;52445;52.466;-1.016;2023-04-05T09:31:31;19.45;;;7.53;;
65717;SDS011;52445;52.466;-1.016;2023-04-05T09:34:01;19.02;;;8.07;;
65717;SDS011;52445;52.466;-1.016;2023-04-05T09:36:29;17.98;;;7.50;;
65717;SDS011;52445;52.466;-1.016;2023-04-05T09:39:06;18.75;;;7.28;;
65717;SDS011;52445;52.466;-1.016;2023-04-05T09:41:33;15.93;;;6.50;;
65717;SDS011;52445;52.466;-1.016;2023-04-05T09:44:01;14.25;;;6.45;;
65717;SDS011;52445;52.466;-1.016;2023-04-05T09:46:30;19.15;;;7.80;;
65717;SDS011;52445;52.466;-1.016;2023-04-05T09:48:59;15.77;;;6.90;;
65717;SDS011;52445;52.466;-1.016;2023-04-05T09:51:30;17.73;;;6.63;;
65717;SDS011;52445;52.466;-1.016;2023-04-05T09:54:01;17.13;;;8.30;;
65717;SDS011;52445;52.466;-1.016;2023-04-05T09:56:34;17.58;;;7.18;;
65717;SDS011;52445;52.466;-1.016;2023-04-05T09:59:06;15.20;;;7.03;;
65717;SDS011;52445;52.466;-1.016;2023-04-05T10:01:36;19.60;;;7.00;;
65717;SDS011;52445;52.466;-1.016;2023-04-05T10:04:06;17.70;;;7.50;;
65717;SDS011;52445;52.466;-1.016;2023-04-05T10:09:10;25.13;;;8.50;;
65717;SDS011;52445;52.466;-1.016;2023-04-05T10:11:40;20.70;;;7.57;;
65717;SDS011;52445;52.466;-1.016;2023-04-05T10:14:09;23.08;;;7.90;;
65717;SDS011;52445;52.466;-1.016;2023-04-05T10:16:42;16.98;;;7.32;;
65717;SDS011;52445;52.466;-1.016;2023-04-05T10:19:25;20.27;;;7.97;;
65717;SDS011;52445;52.466;-1.016;2023-04-05T10:21:54;20.27;;;7.75;;
65717;SDS011;52445;52.466;-1.016;2023-04-05T10:27:08;17.85;;;8.80;;
65717;SDS011;52445;52.466;-1.016;2023-04-05T10:30:00;15.15;;;6.50;;
65717;SDS011;52445;52.466;-1.016;2023-04-05T10:40:52;21.10;;;8.07;;
65717;SDS011;52445;52.466;-1.016;2023-04-05T10:43:22;14.68;;;6.90;;
65717;SDS011;52445;52.466;-1.016;2023-04-05T10:51:15;17.90;;;8.13;;
65717;SDS011;52445;52.466;-1.016;2023-04-05T10:53:44;16.75;;;7.18;;
65717;SDS011;52445;52.466;-1.016;2023-04-05T10:56:13;15.27;;;6.70;;
65717;SDS011;52445;52.466;-1.016;2023-04-05T10:58:40;17.60;;;8.10;;
65717;SDS011;52445;52.466;-1.016;2023-04-05T11:01:09;17.50;;;7.85;;
65717;SDS011;52445;52.466;-1.016;2023-04-05T11:03:41;16.42;;;6.82;;
65717;SDS011;52445;52.466;-1.016;2023-04-05T11:06:16;16.77;;;7.78;;
65717;SDS011;52445;52.466;-1.016;2023-04-05T11:08:57;15.90;;;8.38;;
65717;SDS011;52445;52.466;-1.016;2023-04-05T11:11:26;15.73;;;8.27;;
65717;SDS011;52445;52.466;-1.016;2023-04-05T11:13:53;18.02;;;8.82;;
65717;SDS011;52445;52.466;-1.016;2023-04-05T11:16:21;14.15;;;7.60;;
65717;SDS011;52445;52.466;-1.016;2023-04-05T11:18:50;12.18;;;6.35;;
65717;SDS011;52445;52.466;-1.016;2023-04-05T11:21:24;16.20;;;8.00;;
65717;SDS011;52445;52.466;-1.016;2023-04-05T11:24:03;15.05;;;8.90;;
65717;SDS011;52445;52.466;-1.016;2023-04-05T11:26:51;14.57;;;7.93;;
65717;SDS011;52445;52.466;-1.016;2023-04-05T11:29:44;12.40;;;7.03;;
65717;SDS011;52445;52.466;-1.016;2023-04-05T11:32:16;15.75;;;8.60;;
65717;SDS011;52445;52.466;-1.016;2023-04-05T11:34:43;12.90;;;7.45;;
65717;SDS011;52445;52.466;-1.016;2023-04-05T11:37:10;14.70;;;7.80;;
65717;SDS011;52445;52.466;-1.016;2023-04-05T11:39:37;9.85;;;4.90;;
65717;SDS011;52445;52.466;-1.016;2023-04-05T11:42:05;17.13;;;8.70;;
65717;SDS011;52445;52.466;-1.016;2023-04-05T11:44:39;16.25;;;7.68;;
65717;SDS011;52445;52.466;-1.016;2023-04-05T11:47:15;12.23;;;7.60;;
65717;SDS011;52445;52.466;-1.016;2023-04-05T11:49:43;14.10;;;8.18;;
65717;SDS011;52445;52.466;-1.016;2023-04-05T11:52:16;14.15;;;7.65;;
65717;SDS011;52445;52.466;-1.016;2023-04-05T11:54:44;13.48;;;7.53;;
65717;SDS011;52445;52.466;-1.016;2023-04-05T11:57:13;13.60;;;8.27;;
65717;SDS011;52445;52.466;-1.016;2023-04-05T11:59:48;13.85;;;7.70;;
65717;SDS011;52445;52.466;-1.016;2023-04-05T12:02:16;14.77;;;7.57;;
65717;SDS011;52445;52.466;-1.016;2023-04-05T12:04:43;12.98;;;8.23;;
65717;SDS011;52445;52.466;-1.016;2023-04-05T12:07:14;13.63;;;5.75;;
65717;SDS011;52445;52.466;-1.016;2023-04-05T12:12:37;15.15;;;6.07;;
65717;SDS011;52445;52.466;-1.016;2023-04-05T12:15:07;17.92;;;7.68;;
65717;SDS011;52445;52.466;-1.016;2023-04-05T12:17:37;15.07;;;6.43;;
65717;SDS011;52445;52.466;-1.016;2023-04-05T12:20:15;18.65;;;6.80;;
65717;SDS011;52445;52.466;-1.016;2023-04-05T12:22:45;17.00;;;7.10;;
65717;SDS011;52445;52.466;-1.016;2023-04-05T12:25:14;13.70;;;5.85;;
65717;SDS011;52445;52.466;-1.016;2023-04-05T12:27:41;19.88;;;7.80;;
65717;SDS011;52445;52.466;-1.016;2023-04-05T12:32:49;14.25;;;6.50;;
65717;SDS011;52445;52.466;-1.016;2023-04-05T12:35:18;13.65;;;7.30;;
65717;SDS011;52445;52.466;-1.016;2023-04-05T12:37:52;18.80;;;9.77;;
65717;SDS011;52445;52.466;-1.016;2023-04-05T12:40:19;19.13;;;8.05;;
65717;SDS011;52445;52.466;-1.016;2023-04-05T12:42:47;22.88;;;9.48;;
65717;SDS011;52445;52.466;-1.016;2023-04-05T12:45:14;17.85;;;8.05;;
65717;SDS011;52445;52.466;-1.016;2023-04-05T12:47:50;21.90;;;8.15;;
65717;SDS011;52445;52.466;-1.016;2023-04-05T12:50:28;20.15;;;8.57;;
65717;SDS011;52445;52.466;-1.016;2023-04-05T12:52:57;19.63;;;8.25;;
65717;SDS011;52445;52.466;-1.016;2023-04-05T12:55:26;17.40;;;7.85;;
65717;SDS011;52445;52.466;-1.016;2023-04-05T12:57:55;19.20;;;8.55;;
65717;SDS011;52445;52.466;-1.016;2023-04-05T13:00:26;21.70;;;8.80;;
65717;SDS011;52445;52.466;-1.016;2023-04-05T13:02:56;23.75;;;9.60;;
65717;SDS011;52445;52.466;-1.016;2023-04-05T13:05:25;23.90;;;10.02;;
65717;SDS011;52445;52.466;-1.016;2023-04-05T13:07:53;19.13;;;8.70;;
65717;SDS011;52445;52.466;-1.016;2023-04-05T13:10:21;19.20;;;8.90;;
65717;SDS011;52445;52.466;-1.016;2023-04-05T13:12:48;19.13;;;8.68;;
65717;SDS011;52445;52.466;-1.016;2023-04-05T13:15:15;20.92;;;8.10;;
65717;SDS011;52445;52.466;-1.016;2023-04-05T13:17:43;21.08;;;8.35;;
65717;SDS011;52445;52.466;-1.016;2023-04-05T13:20:15;16.58;;;6.65;;
65717;SDS011;52445;52.466;-1.016;2023-04-05T13:22:44;21.50;;;9.00;;
65717;SDS011;52445;52.466;-1.016;2023-04-05T13:25:11;16.00;;;7.75;;
65717;SDS011;52445;52.466;-1.016;2023-04-05T13:27:39;17.85;;;8.35;;
65717;SDS011;52445;52.466;-1.016;2023-04-05T13:30:06;17.10;;;7.90;;
65717;SDS011;52445;52.466;-1.016;2023-04-05T13:32:33;22.65;;;9.90;;
65717;SDS011;52445;52.466;-1.016;2023-04-05T13:35:00;19.58;;;7.85;;
65717;SDS011;52445;52.466;-1.016;2023-04-05T13:37:26;21.27;;;7.93;;
65717;SDS011;52445;52.466;-1.016;2023-04-05T13:39:53;17.67;;;7.13;;
65717;SDS011;52445;52.466;-1.016;2023-04-05T13:42:19;17.17;;;7.85;;
65717;SDS011;52445;52.466;-1.016;2023-04-05T13:44:46;17.67;;;8.38;;
65717;SDS011;52445;52.466;-1.016;2023-04-05T13:47:13;21.30;;;7.43;;
65717;SDS011;52445;52.466;-1.016;2023-04-05T13:49:41;19.70;;;8.40;;
65717;SDS011;52445;52.466;-1.016;2023-04-05T13:52:09;16.02;;;7.80;;
65717;SDS011;52445;52.466;-1.016;2023-04-05T13:54:35;17.98;;;7.70;;
65717;SDS011;52445;52.466;-1.016;2023-04-05T13:57:02;16.88;;;7.75;;
65717;SDS011;52445;52.466;-1.016;2023-04-05T13:59:29;16.63;;;7.43;;
65717;SDS011;52445;52.466;-1.016;2023-04-05T14:01:56;17.15;;;8.13;;
65717;SDS011;52445;52.466;-1.016;2023-04-05T14:04:22;15.48;;;7.40;;
65717;SDS011;52445;52.466;-1.016;2023-04-05T14:06:49;18.00;;;7.28;;
65717;SDS011;52445;52.466;-1.016;2023-04-05T14:09:16;17.23;;;6.88;;
65717;SDS011;52445;52.466;-1.016;2023-04-05T14:11:43;18.00;;;7.32;;
65717;SDS011;52445;52.466;-1.016;2023-04-05T14:14:09;14.05;;;6.72;;
65717;SDS011;52445;52.466;-1.016;2023-04-05T14:16:36;14.82;;;7.22;;
65717;SDS011;52445;52.466;-1.016;2023-04-05T14:19:03;13.45;;;6.40;;
65717;SDS011;52445;52.466;-1.016;2023-04-05T14:21:30;14.40;;;6.47;;
65717;SDS011;52445;52.466;-1.016;2023-04-05T14:23:58;15.52;;;7.85;;
65717;SDS011;52445;52.466;-1.016;2023-04-05T14:26:25;14.05;;;6.90;;
65717;SDS011;52445;52.466;-1.016;2023-04-05T14:28:52;16.70;;;6.63;;
65717;SDS011;52445;52.466;-1.016;2023-04-05T14:31:19;12.18;;;5.65;;
65717;SDS011;52445;52.466;-1.016;2023-04-05T14:33:46;13.77;;;6.50;;
65717;SDS011;52445;52.466;-1.016;2023-04-05T14:36:12;12.40;;;6.22;;
65717;SDS011;52445;52.466;-1.016;2023-04-05T14:38:39;13.10;;;5.97;;
65717;SDS011;52445;52.466;-1.016;2023-04-05T14:41:05;15.98;;;7.03;;
65717;SDS011;52445;52.466;-1.016;2023-04-05T14:43:33;13.75;;;6.93;;
65717;SDS011;52445;52.466;-1.016;2023-04-05T14:46:00;15.00;;;6.78;;
65717;SDS011;52445;52.466;-1.016;2023-04-05T14:48:27;14.98;;;7.05;;
65717;SDS011;52445;52.466;-1.016;2023-04-05T14:50:55;13.27;;;6.13;;
65717;SDS011;52445;52.466;-1.016;2023-04-05T14:53:22;15.05;;;5.93;;
65717;SDS011;52445;52.466;-1.016;2023-04-05T14:55:48;12.60;;;5.50;;
65717;SDS011;52445;52.466;-1.016;2023-04-05T14:58:15;12.85;;;6.10;;
65717;SDS011;52445;52.466;-1.016;2023-04-05T15:00:42;15.32;;;7.30;;
65717;SDS011;52445;52.466;-1.016;2023-04-05T15:03:09;15.20;;;6.15;;
65717;SDS011;52445;52.466;-1.016;2023-04-05T15:05:36;16.88;;;7.30;;
65717;SDS011;52445;52.466;-1.016;2023-04-05T15:08:02;13.65;;;6.50;;
65717;SDS011;52445;52.466;-1.016;2023-04-05T15:10:29;15.15;;;6.63;;
65717;SDS011;52445;52.466;-1.016;2023-04-05T15:12:56;16.20;;;6.20;;